sensor_id;sensor_type;location;lat;lon;timestamp;temperature;humidity
67354;SHT30;54238;52.278;21.056;2022-07-10T00:01:36;17.18;64.59
67354;SHT30;54238;52.278;21.056;2022-07-10T00:04:10;17.19;64.45
67354;SHT30;54238;52.278;21.056;2022-07-10T00:06:39;17.20;64.46
67354;SHT30;54238;52.278;21.056;2022-07-10T00:09:15;17.21;64.40
67354;SHT30;54238;52.278;21.056;2022-07-10T00:11:49;17.22;64.37
67354;SHT30;54238;52.278;21.056;2022-07-10T00:14:18;17.22;64.39
67354;SHT30;54238;52.278;21.056;2022-07-10T00:16:50;17.20;64.39
67354;SHT30;54238;52.278;21.056;2022-07-10T00:19:17;17.20;64.39
67354;SHT30;54238;52.278;21.056;2022-07-10T00:21:44;17.19;64.42
67354;SHT30;54238;52.278;21.056;2022-07-10T00:24:11;17.17;64.44
67354;SHT30;54238;52.278;21.056;2022-07-10T00:26:39;17.16;64.44
67354;SHT30;54238;52.278;21.056;2022-07-10T00:29:06;17.15;64.53
67354;SHT30;54238;52.278;21.056;2022-07-10T00:31:35;17.14;64.62
67354;SHT30;54238;52.278;21.056;2022-07-10T00:34:07;17.12;64.69
67354;SHT30;54238;52.278;21.056;2022-07-10T00:36:34;17.11;64.78
67354;SHT30;54238;52.278;21.056;2022-07-10T00:39:03;17.09;64.82
67354;SHT30;54238;52.278;21.056;2022-07-10T00:41:30;17.09;64.84
67354;SHT30;54238;52.278;21.056;2022-07-10T00:44:02;17.08;64.87
67354;SHT30;54238;52.278;21.056;2022-07-10T00:46:32;17.06;64.96
67354;SHT30;54238;52.278;21.056;2022-07-10T00:49:02;17.05;65.04
67354;SHT30;54238;52.278;21.056;2022-07-10T00:51:35;17.01;65.20
67354;SHT30;54238;52.278;21.056;2022-07-10T00:54:08;16.95;65.45
67354;SHT30;54238;52.278;21.056;2022-07-10T00:56:37;16.91;65.62
67354;SHT30;54238;52.278;21.056;2022-07-10T00:59:10;16.90;65.77
67354;SHT30;54238;52.278;21.056;2022-07-10T01:01:37;16.89;65.78
67354;SHT30;54238;52.278;21.056;2022-07-10T01:04:04;16.90;65.94
67354;SHT30;54238;52.278;21.056;2022-07-10T01:06:31;16.86;66.05
67354;SHT30;54238;52.278;21.056;2022-07-10T01:09:03;16.85;66.18
67354;SHT30;54238;52.278;21.056;2022-07-10T01:11:34;16.82;66.29
67354;SHT30;54238;52.278;21.056;2022-07-10T01:14:03;16.78;66.40
67354;SHT30;54238;52.278;21.056;2022-07-10T01:16:34;16.77;66.50
67354;SHT30;54238;52.278;21.056;2022-07-10T01:19:02;16.75;66.62
67354;SHT30;54238;52.278;21.056;2022-07-10T01:21:34;16.74;66.70
67354;SHT30;54238;52.278;21.056;2022-07-10T01:24:04;16.72;66.81
67354;SHT30;54238;52.278;21.056;2022-07-10T01:26:35;16.72;66.96
67354;SHT30;54238;52.278;21.056;2022-07-10T01:29:09;16.70;67.06
67354;SHT30;54238;52.278;21.056;2022-07-10T01:31:40;16.68;67.09
67354;SHT30;54238;52.278;21.056;2022-07-10T01:34:10;16.67;67.12
67354;SHT30;54238;52.278;21.056;2022-07-10T01:36:44;16.67;67.20
67354;SHT30;54238;52.278;21.056;2022-07-10T01:39:16;16.66;67.32
67354;SHT30;54238;52.278;21.056;2022-07-10T01:41:43;16.64;67.29
67354;SHT30;54238;52.278;21.056;2022-07-10T01:44:10;16.64;67.38
67354;SHT30;54238;52.278;21.056;2022-07-10T01:46:46;16.65;67.33
67354;SHT30;54238;52.278;21.056;2022-07-10T01:49:15;16.67;67.46
67354;SHT30;54238;52.278;21.056;2022-07-10T01:51:42;16.66;67.42
67354;SHT30;54238;52.278;21.056;2022-07-10T01:54:12;16.66;67.41
67354;SHT30;54238;52.278;21.056;2022-07-10T01:56:41;16.65;67.47
67354;SHT30;54238;52.278;21.056;2022-07-10T01:59:11;16.63;67.48
67354;SHT30;54238;52.278;21.056;2022-07-10T02:01:37;16.65;67.48
67354;SHT30;54238;52.278;21.056;2022-07-10T02:04:04;16.64;67.44
67354;SHT30;54238;52.278;21.056;2022-07-10T02:06:50;16.63;67.50
67354;SHT30;54238;52.278;21.056;2022-07-10T02:09:19;16.60;67.59
67354;SHT30;54238;52.278;21.056;2022-07-10T02:11:46;16.61;67.61
67354;SHT30;54238;52.278;21.056;2022-07-10T02:14:18;16.62;67.67
67354;SHT30;54238;52.278;21.056;2022-07-10T02:16:45;16.62;67.66
67354;SHT30;54238;52.278;21.056;2022-07-10T02:19:14;16.62;67.62
67354;SHT30;54238;52.278;21.056;2022-07-10T02:21:46;16.64;67.64
67354;SHT30;54238;52.278;21.056;2022-07-10T02:24:12;16.63;67.70
67354;SHT30;54238;52.278;21.056;2022-07-10T02:26:47;16.64;67.74
67354;SHT30;54238;52.278;21.056;2022-07-10T02:29:17;16.63;67.87
67354;SHT30;54238;52.278;21.056;2022-07-10T02:31:47;16.63;67.74
67354;SHT30;54238;52.278;21.056;2022-07-10T02:34:14;16.65;67.72
67354;SHT30;54238;52.278;21.056;2022-07-10T02:36:45;16.66;67.70
67354;SHT30;54238;52.278;21.056;2022-07-10T02:39:15;16.66;67.70
67354;SHT30;54238;52.278;21.056;2022-07-10T02:41:45;16.64;67.76
67354;SHT30;54238;52.278;21.056;2022-07-10T02:44:12;16.64;67.72
67354;SHT30;54238;52.278;21.056;2022-07-10T02:46:43;16.63;67.70
67354;SHT30;54238;52.278;21.056;2022-07-10T02:49:10;16.62;67.72
67354;SHT30;54238;52.278;21.056;2022-07-10T02:51:42;16.63;67.64
67354;SHT30;54238;52.278;21.056;2022-07-10T02:54:17;16.64;67.56
67354;SHT30;54238;52.278;21.056;2022-07-10T02:56:44;16.62;67.50
67354;SHT30;54238;52.278;21.056;2022-07-10T02:59:10;16.59;67.54
67354;SHT30;54238;52.278;21.056;2022-07-10T03:01:42;16.59;67.54
67354;SHT30;54238;52.278;21.056;2022-07-10T03:04:11;16.58;67.53
67354;SHT30;54238;52.278;21.056;2022-07-10T03:06:42;16.58;67.57
67354;SHT30;54238;52.278;21.056;2022-07-10T03:09:10;16.59;67.50
67354;SHT30;54238;52.278;21.056;2022-07-10T03:11:39;16.62;67.44
67354;SHT30;54238;52.278;21.056;2022-07-10T03:14:10;16.62;67.56
67354;SHT30;54238;52.278;21.056;2022-07-10T03:16:38;16.60;67.50
67354;SHT30;54238;52.278;21.056;2022-07-10T03:19:05;16.56;67.50
67354;SHT30;54238;52.278;21.056;2022-07-10T03:21:36;16.54;67.50
67354;SHT30;54238;52.278;21.056;2022-07-10T03:24:03;16.55;67.54
67354;SHT30;54238;52.278;21.056;2022-07-10T03:26:30;16.53;67.58
67354;SHT30;54238;52.278;21.056;2022-07-10T03:29:04;16.52;67.59
67354;SHT30;54238;52.278;21.056;2022-07-10T03:31:33;16.52;67.60
67354;SHT30;54238;52.278;21.056;2022-07-10T03:34:03;16.52;67.53
67354;SHT30;54238;52.278;21.056;2022-07-10T03:36:31;16.51;67.54
67354;SHT30;54238;52.278;21.056;2022-07-10T03:39:02;16.49;67.53
67354;SHT30;54238;52.278;21.056;2022-07-10T03:41:31;16.47;67.59
67354;SHT30;54238;52.278;21.056;2022-07-10T03:43:58;16.45;67.67
67354;SHT30;54238;52.278;21.056;2022-07-10T03:46:27;16.41;67.76
67354;SHT30;54238;52.278;21.056;2022-07-10T03:48:57;16.39;67.94
67354;SHT30;54238;52.278;21.056;2022-07-10T03:51:29;16.39;67.95
67354;SHT30;54238;52.278;21.056;2022-07-10T03:53:56;16.39;67.91
67354;SHT30;54238;52.278;21.056;2022-07-10T03:56:22;16.45;67.78
67354;SHT30;54238;52.278;21.056;2022-07-10T03:59:10;16.50;67.82
67354;SHT30;54238;52.278;21.056;2022-07-10T04:01:39;16.53;67.84
67354;SHT30;54238;52.278;21.056;2022-07-10T04:04:08;16.58;67.31
67354;SHT30;54238;52.278;21.056;2022-07-10T04:06:38;16.63;67.07
67354;SHT30;54238;52.278;21.056;2022-07-10T04:09:10;16.67;66.88
67354;SHT30;54238;52.278;21.056;2022-07-10T04:11:37;16.69;66.84
67354;SHT30;54238;52.278;21.056;2022-07-10T04:14:05;16.71;66.79
67354;SHT30;54238;52.278;21.056;2022-07-10T04:16:34;16.76;66.84
67354;SHT30;54238;52.278;21.056;2022-07-10T04:19:03;16.80;66.92
67354;SHT30;54238;52.278;21.056;2022-07-10T04:21:30;16.84;66.58
67354;SHT30;54238;52.278;21.056;2022-07-10T04:23:58;16.88;66.41
67354;SHT30;54238;52.278;21.056;2022-07-10T04:26:29;16.93;66.15
67354;SHT30;54238;52.278;21.056;2022-07-10T04:29:01;17.03;65.95
67354;SHT30;54238;52.278;21.056;2022-07-10T04:31:30;17.12;65.52
67354;SHT30;54238;52.278;21.056;2022-07-10T04:34:00;17.14;64.54
67354;SHT30;54238;52.278;21.056;2022-07-10T04:36:34;17.14;64.03
67354;SHT30;54238;52.278;21.056;2022-07-10T04:39:01;17.15;63.93
67354;SHT30;54238;52.278;21.056;2022-07-10T04:41:32;17.17;63.84
67354;SHT30;54238;52.278;21.056;2022-07-10T04:44:01;17.23;63.94
67354;SHT30;54238;52.278;21.056;2022-07-10T04:46:29;17.33;63.69
67354;SHT30;54238;52.278;21.056;2022-07-10T04:48:56;17.37;63.11
67354;SHT30;54238;52.278;21.056;2022-07-10T04:51:23;17.37;62.07
67354;SHT30;54238;52.278;21.056;2022-07-10T04:53:50;17.34;62.34
67354;SHT30;54238;52.278;21.056;2022-07-10T04:56:17;17.34;62.39
67354;SHT30;54238;52.278;21.056;2022-07-10T04:58:44;17.33;62.24
67354;SHT30;54238;52.278;21.056;2022-07-10T05:01:13;17.39;62.27
67354;SHT30;54238;52.278;21.056;2022-07-10T05:03:45;17.47;62.08
67354;SHT30;54238;52.278;21.056;2022-07-10T05:06:17;17.53;61.69
67354;SHT30;54238;52.278;21.056;2022-07-10T05:08:44;17.58;61.74
67354;SHT30;54238;52.278;21.056;2022-07-10T05:11:15;17.64;61.84
67354;SHT30;54238;52.278;21.056;2022-07-10T05:13:42;17.69;62.13
67354;SHT30;54238;52.278;21.056;2022-07-10T05:16:12;17.75;62.00
67354;SHT30;54238;52.278;21.056;2022-07-10T05:18:41;17.80;61.59
67354;SHT30;54238;52.278;21.056;2022-07-10T05:21:12;17.82;61.41
67354;SHT30;54238;52.278;21.056;2022-07-10T05:23:44;17.89;61.42
67354;SHT30;54238;52.278;21.056;2022-07-10T05:26:10;17.98;60.99
67354;SHT30;54238;52.278;21.056;2022-07-10T05:28:40;18.07;60.59
67354;SHT30;54238;52.278;21.056;2022-07-10T05:31:07;18.13;60.64
67354;SHT30;54238;52.278;21.056;2022-07-10T05:33:37;18.22;60.39
67354;SHT30;54238;52.278;21.056;2022-07-10T05:36:09;18.25;59.91
67354;SHT30;54238;52.278;21.056;2022-07-10T05:38:41;18.34;60.04
67354;SHT30;54238;52.278;21.056;2022-07-10T05:41:10;18.41;59.91
67354;SHT30;54238;52.278;21.056;2022-07-10T05:43:42;18.50;59.14
67354;SHT30;54238;52.278;21.056;2022-07-10T05:46:16;18.55;59.13
67354;SHT30;54238;52.278;21.056;2022-07-10T05:48:43;18.63;58.92
67354;SHT30;54238;52.278;21.056;2022-07-10T05:51:10;18.68;58.37
67354;SHT30;54238;52.278;21.056;2022-07-10T05:53:42;18.83;58.40
67354;SHT30;54238;52.278;21.056;2022-07-10T05:56:14;18.93;57.40
67354;SHT30;54238;52.278;21.056;2022-07-10T05:58:45;18.96;56.74
67354;SHT30;54238;52.278;21.056;2022-07-10T06:01:17;18.98;56.71
67354;SHT30;54238;52.278;21.056;2022-07-10T06:03:44;18.98;55.58
67354;SHT30;54238;52.278;21.056;2022-07-10T06:06:11;18.96;55.79
67354;SHT30;54238;52.278;21.056;2022-07-10T06:08:44;19.00;56.20
67354;SHT30;54238;52.278;21.056;2022-07-10T06:11:12;18.99;55.50
67354;SHT30;54238;52.278;21.056;2022-07-10T06:13:39;18.95;55.60
67354;SHT30;54238;52.278;21.056;2022-07-10T06:16:13;18.94;55.21
67354;SHT30;54238;52.278;21.056;2022-07-10T06:18:40;18.88;55.10
67354;SHT30;54238;52.278;21.056;2022-07-10T06:21:07;18.94;55.57
67354;SHT30;54238;52.278;21.056;2022-07-10T06:23:35;18.99;55.13
67354;SHT30;54238;52.278;21.056;2022-07-10T06:26:02;19.02;55.07
67354;SHT30;54238;52.278;21.056;2022-07-10T06:28:33;19.02;54.96
67354;SHT30;54238;52.278;21.056;2022-07-10T06:31:08;19.00;55.00
67354;SHT30;54238;52.278;21.056;2022-07-10T06:33:38;18.94;55.17
67354;SHT30;54238;52.278;21.056;2022-07-10T06:36:08;18.91;55.60
67354;SHT30;54238;52.278;21.056;2022-07-10T06:38:34;18.90;55.69
67354;SHT30;54238;52.278;21.056;2022-07-10T06:41:01;18.88;55.69
67354;SHT30;54238;52.278;21.056;2022-07-10T06:43:28;18.89;55.93
67354;SHT30;54238;52.278;21.056;2022-07-10T06:45:58;18.91;56.09
67354;SHT30;54238;52.278;21.056;2022-07-10T06:48:30;18.95;56.33
67354;SHT30;54238;52.278;21.056;2022-07-10T06:50:59;18.92;56.07
67354;SHT30;54238;52.278;21.056;2022-07-10T06:53:31;18.92;55.99
67354;SHT30;54238;52.278;21.056;2022-07-10T06:56:00;18.92;55.84
67354;SHT30;54238;52.278;21.056;2022-07-10T06:58:27;18.96;55.33
67354;SHT30;54238;52.278;21.056;2022-07-10T07:00:55;18.94;54.87
67354;SHT30;54238;52.278;21.056;2022-07-10T07:03:25;18.95;55.16
67354;SHT30;54238;52.278;21.056;2022-07-10T07:05:55;19.01;55.35
67354;SHT30;54238;52.278;21.056;2022-07-10T07:08:22;18.98;55.41
67354;SHT30;54238;52.278;21.056;2022-07-10T07:10:48;19.00;55.84
67354;SHT30;54238;52.278;21.056;2022-07-10T07:13:18;19.10;55.48
67354;SHT30;54238;52.278;21.056;2022-07-10T07:15:50;19.20;55.56
67354;SHT30;54238;52.278;21.056;2022-07-10T07:18:28;19.31;55.46
67354;SHT30;54238;52.278;21.056;2022-07-10T07:20:59;19.47;55.25
67354;SHT30;54238;52.278;21.056;2022-07-10T07:23:47;19.63;55.00
67354;SHT30;54238;52.278;21.056;2022-07-10T07:26:14;19.72;54.23
67354;SHT30;54238;52.278;21.056;2022-07-10T07:28:43;19.74;54.49
67354;SHT30;54238;52.278;21.056;2022-07-10T07:31:10;19.80;54.70
67354;SHT30;54238;52.278;21.056;2022-07-10T07:33:37;19.87;54.39
67354;SHT30;54238;52.278;21.056;2022-07-10T07:36:06;19.99;53.70
67354;SHT30;54238;52.278;21.056;2022-07-10T07:38:38;20.11;53.76
67354;SHT30;54238;52.278;21.056;2022-07-10T07:41:10;20.30;53.59
67354;SHT30;54238;52.278;21.056;2022-07-10T07:43:39;20.34;51.50
67354;SHT30;54238;52.278;21.056;2022-07-10T07:46:08;20.33;51.61
67354;SHT30;54238;52.278;21.056;2022-07-10T07:48:36;20.35;52.03
67354;SHT30;54238;52.278;21.056;2022-07-10T07:51:03;20.39;52.54
67354;SHT30;54238;52.278;21.056;2022-07-10T07:53:34;20.38;51.83
67354;SHT30;54238;52.278;21.056;2022-07-10T07:56:10;20.44;51.93
67354;SHT30;54238;52.278;21.056;2022-07-10T07:58:41;20.55;52.17
67354;SHT30;54238;52.278;21.056;2022-07-10T08:01:11;20.65;52.04
67354;SHT30;54238;52.278;21.056;2022-07-10T08:03:37;20.64;51.30
67354;SHT30;54238;52.278;21.056;2022-07-10T08:06:09;20.63;51.10
67354;SHT30;54238;52.278;21.056;2022-07-10T08:08:43;20.65;50.96
67354;SHT30;54238;52.278;21.056;2022-07-10T08:11:15;20.60;50.81
67354;SHT30;54238;52.278;21.056;2022-07-10T08:13:45;20.61;51.39
67354;SHT30;54238;52.278;21.056;2022-07-10T08:16:17;20.59;51.24
67354;SHT30;54238;52.278;21.056;2022-07-10T08:18:46;20.57;51.11
67354;SHT30;54238;52.278;21.056;2022-07-10T08:21:18;20.54;51.71
67354;SHT30;54238;52.278;21.056;2022-07-10T08:23:44;20.54;51.71
67354;SHT30;54238;52.278;21.056;2022-07-10T08:26:14;20.55;51.33
67354;SHT30;54238;52.278;21.056;2022-07-10T08:28:44;20.53;50.94
67354;SHT30;54238;52.278;21.056;2022-07-10T08:31:13;20.50;50.97
67354;SHT30;54238;52.278;21.056;2022-07-10T08:33:45;20.34;50.69
67354;SHT30;54238;52.278;21.056;2022-07-10T08:36:13;20.10;50.58
67354;SHT30;54238;52.278;21.056;2022-07-10T08:38:42;19.90;51.33
67354;SHT30;54238;52.278;21.056;2022-07-10T08:41:12;19.80;51.99
67354;SHT30;54238;52.278;21.056;2022-07-10T08:43:40;19.73;52.26
67354;SHT30;54238;52.278;21.056;2022-07-10T08:46:09;19.60;53.49
67354;SHT30;54238;52.278;21.056;2022-07-10T08:48:39;19.52;53.38
67354;SHT30;54238;52.278;21.056;2022-07-10T08:51:13;19.57;54.08
67354;SHT30;54238;52.278;21.056;2022-07-10T08:53:57;19.65;54.61
67354;SHT30;54238;52.278;21.056;2022-07-10T08:56:30;19.71;54.68
67354;SHT30;54238;52.278;21.056;2022-07-10T08:59:01;19.73;55.28
67354;SHT30;54238;52.278;21.056;2022-07-10T09:01:31;19.86;55.72
67354;SHT30;54238;52.278;21.056;2022-07-10T09:03:59;19.99;55.13
67354;SHT30;54238;52.278;21.056;2022-07-10T09:06:27;20.09;53.81
67354;SHT30;54238;52.278;21.056;2022-07-10T09:09:02;20.23;53.52
67354;SHT30;54238;52.278;21.056;2022-07-10T09:11:39;20.41;52.82
67354;SHT30;54238;52.278;21.056;2022-07-10T09:14:16;20.54;51.32
67354;SHT30;54238;52.278;21.056;2022-07-10T09:16:44;20.74;51.39
67354;SHT30;54238;52.278;21.056;2022-07-10T09:19:26;20.95;50.71
67354;SHT30;54238;52.278;21.056;2022-07-10T09:22:09;21.29;50.39
67354;SHT30;54238;52.278;21.056;2022-07-10T09:24:46;21.64;49.19
67354;SHT30;54238;52.278;21.056;2022-07-10T09:27:15;21.75;47.97
67354;SHT30;54238;52.278;21.056;2022-07-10T09:32:25;21.47;44.48
67354;SHT30;54238;52.278;21.056;2022-07-10T09:34:52;21.32;45.82
67354;SHT30;54238;52.278;21.056;2022-07-10T09:37:40;21.49;44.62
67354;SHT30;54238;52.278;21.056;2022-07-10T09:40:10;21.42;43.79
67354;SHT30;54238;52.278;21.056;2022-07-10T09:42:42;21.31;44.90
67354;SHT30;54238;52.278;21.056;2022-07-10T09:45:12;21.28;45.39
67354;SHT30;54238;52.278;21.056;2022-07-10T09:47:53;21.30;44.85
67354;SHT30;54238;52.278;21.056;2022-07-10T09:53:07;21.14;46.21
67354;SHT30;54238;52.278;21.056;2022-07-10T09:55:39;21.07;46.02
67354;SHT30;54238;52.278;21.056;2022-07-10T09:58:08;20.92;46.56
67354;SHT30;54238;52.278;21.056;2022-07-10T10:00:36;20.75;46.94
67354;SHT30;54238;52.278;21.056;2022-07-10T10:03:15;20.60;46.77
67354;SHT30;54238;52.278;21.056;2022-07-10T10:05:53;20.42;46.21
67354;SHT30;54238;52.278;21.056;2022-07-10T10:08:27;20.28;46.62
67354;SHT30;54238;52.278;21.056;2022-07-10T10:11:04;20.18;47.25
67354;SHT30;54238;52.278;21.056;2022-07-10T10:13:37;20.08;47.24
67354;SHT30;54238;52.278;21.056;2022-07-10T10:16:07;20.06;47.72
67354;SHT30;54238;52.278;21.056;2022-07-10T10:18:36;20.09;47.57
67354;SHT30;54238;52.278;21.056;2022-07-10T10:21:24;20.08;45.86
67354;SHT30;54238;52.278;21.056;2022-07-10T10:23:57;20.28;45.95
67354;SHT30;54238;52.278;21.056;2022-07-10T10:26:26;20.58;46.10
67354;SHT30;54238;52.278;21.056;2022-07-10T10:28:56;21.11;46.15
67354;SHT30;54238;52.278;21.056;2022-07-10T10:31:27;21.77;46.78
67354;SHT30;54238;52.278;21.056;2022-07-10T10:34:00;22.49;42.91
67354;SHT30;54238;52.278;21.056;2022-07-10T10:39:14;23.08;40.48
67354;SHT30;54238;52.278;21.056;2022-07-10T10:41:49;23.37;39.14
67354;SHT30;54238;52.278;21.056;2022-07-10T10:44:21;23.71;37.66
67354;SHT30;54238;52.278;21.056;2022-07-10T10:49:17;24.26;36.63
67354;SHT30;54238;52.278;21.056;2022-07-10T10:54:59;24.38;38.28
67354;SHT30;54238;52.278;21.056;2022-07-10T10:57:21;24.79;37.63
67354;SHT30;54238;52.278;21.056;2022-07-10T11:00:05;24.90;37.69
67354;SHT30;54238;52.278;21.056;2022-07-10T11:02:36;25.10;37.56
67354;SHT30;54238;52.278;21.056;2022-07-10T11:07:51;24.95;38.38
67354;SHT30;54238;52.278;21.056;2022-07-10T11:10:29;25.09;38.85
67354;SHT30;54238;52.278;21.056;2022-07-10T11:13:11;25.19;38.64
67354;SHT30;54238;52.278;21.056;2022-07-10T11:15:42;25.24;38.50
67354;SHT30;54238;52.278;21.056;2022-07-10T11:18:17;25.14;38.78
67354;SHT30;54238;52.278;21.056;2022-07-10T11:20:49;25.29;39.16
67354;SHT30;54238;52.278;21.056;2022-07-10T11:23:33;25.44;38.40
67354;SHT30;54238;52.278;21.056;2022-07-10T11:26:13;25.57;34.74
67354;SHT30;54238;52.278;21.056;2022-07-10T11:28:51;25.50;34.14
67354;SHT30;54238;52.278;21.056;2022-07-10T11:31:21;25.25;34.81
67354;SHT30;54238;52.278;21.056;2022-07-10T11:33:51;25.17;35.46
67354;SHT30;54238;52.278;21.056;2022-07-10T11:36:26;25.10;35.57
67354;SHT30;54238;52.278;21.056;2022-07-10T11:39:04;24.91;35.64
67354;SHT30;54238;52.278;21.056;2022-07-10T11:41:42;24.76;35.56
67354;SHT30;54238;52.278;21.056;2022-07-10T11:44:20;24.38;35.56
67354;SHT30;54238;52.278;21.056;2022-07-10T11:46:54;24.07;36.03
67354;SHT30;54238;52.278;21.056;2022-07-10T11:49:26;23.86;36.18
67354;SHT30;54238;52.278;21.056;2022-07-10T11:51:53;23.95;36.40
67354;SHT30;54238;52.278;21.056;2022-07-10T11:54:22;24.03;36.28
67354;SHT30;54238;52.278;21.056;2022-07-10T11:56:52;24.13;36.87
67354;SHT30;54238;52.278;21.056;2022-07-10T11:59:24;24.53;36.52
67354;SHT30;54238;52.278;21.056;2022-07-10T12:01:55;25.05;36.78
67354;SHT30;54238;52.278;21.056;2022-07-10T12:04:25;25.60;36.10
67354;SHT30;54238;52.278;21.056;2022-07-10T12:06:58;25.99;35.09
67354;SHT30;54238;52.278;21.056;2022-07-10T12:09:27;25.75;35.07
67354;SHT30;54238;52.278;21.056;2022-07-10T12:12:04;25.35;35.85
67354;SHT30;54238;52.278;21.056;2022-07-10T12:14:34;24.97;36.35
67354;SHT30;54238;52.278;21.056;2022-07-10T12:17:02;24.52;37.02
67354;SHT30;54238;52.278;21.056;2022-07-10T12:19:42;24.26;38.17
67354;SHT30;54238;52.278;21.056;2022-07-10T12:22:12;24.45;38.86
67354;SHT30;54238;52.278;21.056;2022-07-10T12:24:44;24.96;37.20
67354;SHT30;54238;52.278;21.056;2022-07-10T12:30:10;25.49;35.33
67354;SHT30;54238;52.278;21.056;2022-07-10T12:32:41;25.66;36.62
67354;SHT30;54238;52.278;21.056;2022-07-10T12:35:08;25.73;37.30
67354;SHT30;54238;52.278;21.056;2022-07-10T12:37:47;25.30;37.73
67354;SHT30;54238;52.278;21.056;2022-07-10T12:40:29;24.86;38.15
67354;SHT30;54238;52.278;21.056;2022-07-10T12:43:04;24.56;38.99
67354;SHT30;54238;52.278;21.056;2022-07-10T12:45:32;24.13;40.00
67354;SHT30;54238;52.278;21.056;2022-07-10T12:48:03;23.49;41.48
67354;SHT30;54238;52.278;21.056;2022-07-10T12:50:32;22.89;43.57
67354;SHT30;54238;52.278;21.056;2022-07-10T12:53:09;22.43;45.35
67354;SHT30;54238;52.278;21.056;2022-07-10T12:55:46;21.96;46.63
67354;SHT30;54238;52.278;21.056;2022-07-10T12:58:15;21.65;47.75
67354;SHT30;54238;52.278;21.056;2022-07-10T13:00:44;21.45;48.74
67354;SHT30;54238;52.278;21.056;2022-07-10T13:03:17;21.31;48.82
67354;SHT30;54238;52.278;21.056;2022-07-10T13:05:48;21.18;49.49
67354;SHT30;54238;52.278;21.056;2022-07-10T13:08:21;21.17;49.50
67354;SHT30;54238;52.278;21.056;2022-07-10T13:10:55;21.33;49.77
67354;SHT30;54238;52.278;21.056;2022-07-10T13:13:27;21.61;48.60
67354;SHT30;54238;52.278;21.056;2022-07-10T13:16:00;21.87;48.05
67354;SHT30;54238;52.278;21.056;2022-07-10T13:18:34;22.54;47.09
67354;SHT30;54238;52.278;21.056;2022-07-10T13:21:04;23.30;45.81
67354;SHT30;54238;52.278;21.056;2022-07-10T13:23:36;23.64;45.57
67354;SHT30;54238;52.278;21.056;2022-07-10T13:26:11;23.70;45.46
67354;SHT30;54238;52.278;21.056;2022-07-10T13:28:40;23.52;44.65
67354;SHT30;54238;52.278;21.056;2022-07-10T13:31:10;23.05;44.51
67354;SHT30;54238;52.278;21.056;2022-07-10T13:33:37;22.27;45.54
67354;SHT30;54238;52.278;21.056;2022-07-10T13:36:04;21.56;47.41
67354;SHT30;54238;52.278;21.056;2022-07-10T13:38:34;20.92;49.52
67354;SHT30;54238;52.278;21.056;2022-07-10T13:41:05;20.40;52.00
67354;SHT30;54238;52.278;21.056;2022-07-10T13:43:34;19.95;53.47
67354;SHT30;54238;52.278;21.056;2022-07-10T13:46:04;19.63;54.60
67354;SHT30;54238;52.278;21.056;2022-07-10T13:48:31;19.39;55.79
67354;SHT30;54238;52.278;21.056;2022-07-10T13:51:00;19.24;56.27
67354;SHT30;54238;52.278;21.056;2022-07-10T13:53:27;19.16;56.89
67354;SHT30;54238;52.278;21.056;2022-07-10T13:55:54;19.16;57.38
67354;SHT30;54238;52.278;21.056;2022-07-10T13:58:25;19.14;57.29
67354;SHT30;54238;52.278;21.056;2022-07-10T14:00:53;19.18;57.52
67354;SHT30;54238;52.278;21.056;2022-07-10T14:03:20;19.27;57.47
67354;SHT30;54238;52.278;21.056;2022-07-10T14:05:49;19.48;57.22
67354;SHT30;54238;52.278;21.056;2022-07-10T14:08:16;19.66;56.52
67354;SHT30;54238;52.278;21.056;2022-07-10T14:10:45;19.83;56.07
67354;SHT30;54238;52.278;21.056;2022-07-10T14:13:13;20.00;55.13
67354;SHT30;54238;52.278;21.056;2022-07-10T14:15:40;20.31;54.30
67354;SHT30;54238;52.278;21.056;2022-07-10T14:18:13;20.97;52.78
67354;SHT30;54238;52.278;21.056;2022-07-10T14:21:01;21.68;51.81
67354;SHT30;54238;52.278;21.056;2022-07-10T14:23:31;22.25;50.48
67354;SHT30;54238;52.278;21.056;2022-07-10T14:26:01;22.85;49.26
67354;SHT30;54238;52.278;21.056;2022-07-10T14:28:31;23.28;48.14
67354;SHT30;54238;52.278;21.056;2022-07-10T14:30:58;23.23;48.13
67354;SHT30;54238;52.278;21.056;2022-07-10T14:33:33;22.93;45.98
67354;SHT30;54238;52.278;21.056;2022-07-10T14:36:02;22.46;45.84
67354;SHT30;54238;52.278;21.056;2022-07-10T14:38:30;22.03;46.74
67354;SHT30;54238;52.278;21.056;2022-07-10T14:40:58;21.65;47.83
67354;SHT30;54238;52.278;21.056;2022-07-10T14:43:26;21.32;48.32
67354;SHT30;54238;52.278;21.056;2022-07-10T14:45:58;21.12;48.72
67354;SHT30;54238;52.278;21.056;2022-07-10T14:48:31;20.95;49.08
67354;SHT30;54238;52.278;21.056;2022-07-10T14:51:00;20.76;49.83
67354;SHT30;54238;52.278;21.056;2022-07-10T14:53:27;20.58;51.08
67354;SHT30;54238;52.278;21.056;2022-07-10T14:55:56;20.42;51.16
67354;SHT30;54238;52.278;21.056;2022-07-10T14:58:25;20.31;51.22
67354;SHT30;54238;52.278;21.056;2022-07-10T15:00:55;20.23;51.21
67354;SHT30;54238;52.278;21.056;2022-07-10T15:03:22;20.20;51.60
67354;SHT30;54238;52.278;21.056;2022-07-10T15:05:52;20.24;51.63
67354;SHT30;54238;52.278;21.056;2022-07-10T15:08:23;20.30;51.37
67354;SHT30;54238;52.278;21.056;2022-07-10T15:10:54;20.25;51.26
67354;SHT30;54238;52.278;21.056;2022-07-10T15:13:21;20.14;51.28
67354;SHT30;54238;52.278;21.056;2022-07-10T15:15:48;19.96;51.65
67354;SHT30;54238;52.278;21.056;2022-07-10T15:18:19;19.79;52.13
67354;SHT30;54238;52.278;21.056;2022-07-10T15:20:47;19.75;52.68
67354;SHT30;54238;52.278;21.056;2022-07-10T15:23:14;19.73;53.16
67354;SHT30;54238;52.278;21.056;2022-07-10T15:25:49;19.68;53.42
67354;SHT30;54238;52.278;21.056;2022-07-10T15:28:18;19.56;53.95
67354;SHT30;54238;52.278;21.056;2022-07-10T15:30:47;19.45;54.48
67354;SHT30;54238;52.278;21.056;2022-07-10T15:33:14;19.41;55.12
67354;SHT30;54238;52.278;21.056;2022-07-10T15:35:43;19.54;55.22
67354;SHT30;54238;52.278;21.056;2022-07-10T15:38:12;19.63;55.33
67354;SHT30;54238;52.278;21.056;2022-07-10T15:40:44;19.64;55.77
67354;SHT30;54238;52.278;21.056;2022-07-10T15:43:13;19.66;55.89
67354;SHT30;54238;52.278;21.056;2022-07-10T15:45:42;20.09;55.39
67354;SHT30;54238;52.278;21.056;2022-07-10T15:48:09;20.58;54.22
67354;SHT30;54238;52.278;21.056;2022-07-10T15:50:41;20.65;53.99
67354;SHT30;54238;52.278;21.056;2022-07-10T15:53:13;20.65;53.81
67354;SHT30;54238;52.278;21.056;2022-07-10T15:55:42;20.68;52.29